Historyczne dane pomiarowe

Dodano dane terminowe – wersja testowa.

Dane z okresu 1951-2019

Wersja bazy: 1.34 [2019-03-16, lista zmian], aktualizacja planowana na 2019-04-15

Dane meteo z obszaru Polski uzyskane na podstawie danych udostępnionych przez Instytut Meteorologii i Gospodarki Wodnej – Państwowy Instytut Badawczy.

 

Wybierz Datę:    

       

TemperaturaWilgotnośćWiatrCiśnienieOpadyŚniegCzas trwania zjawisk
 Stacja t tx tn tng RH VA  wxwx mslp ppp RRR   cm mm wxwxwxwxwxwxwx
1979-02-15-13.0 -9.5-14.8--- 8.0 12.0---- 3.2-- 76---------
1979-02-14-12.1 -4.5-14.4--- 8.0 12.7---- 2.1-- 74---------
1979-02-13 -5.1 -2.8 -8.1--- 6.0 6.3---- 0.2-- 74---------
1979-02-12 -8.0 -5.5-12.5--- 4.3 3.0---- 0.0-- 74---------
1979-02-11 -5.6 -1.6-10.3--- 3.3 2.3---- 0.0-- 74---------
1979-02-10 -5.5 -2.1 -7.3--- 3.3 4.3---- 0.0-- 74---------
1979-02-09 -3.6 -1.7 -5.9--- 7.3 5.0---- 0.0-- 74---------
1979-02-08 -6.0 -3.7 -7.9--- 8.0 7.3---- 2.2-- 72---------
1979-02-07 -5.7 -3.7 -7.3--- 8.0 3.7---- 0.0-- 72---------
1979-02-06 -3.5 -1.3 -6.5--- 7.3 2.3---- 0.0-- 72---------
1979-02-05 -3.3 -0.6 -5.9--- 4.3 2.3---- 0.0-- 72---------
1979-02-04 -1.6 -0.5 -2.6--- 7.0 6.3---- 0.0-- 72---------
1979-02-03 -2.1 -0.6 -3.6--- 7.3 7.0---- 0.2-- 72---------
1979-02-02 -0.5 0.5 -1.3--- 8.0 3.7---- 2.3-- 70---------
1979-02-01 -2.0 0.6 -6.2--- 8.0 3.7---- 0.4-- 70---------
1979-01-31 -4.6 -2.6 -6.6--- 8.0 7.7---- 2.7-- 68---------
1979-01-30 -5.8 -3.2 -7.1--- 8.0 2.3---- 0.4-- 68---------
1979-01-29 -3.6 -2.6 -4.9--- 8.0 5.0---- 0.0-- 68---------
1979-01-28 -3.7 -2.0 -8.7--- 8.0 3.7---- 0.0-- 68---------
1979-01-27 -4.1 -2.8 -7.0--- 8.0 3.0---- 0.0-- 68---------
1979-01-26 -6.1 -3.7 -9.6--- 8.0 4.3---- 0.0-- 68---------
1979-01-25 -4.9 -2.8 -6.2--- 5.3 4.3---- 0.0-- 68---------
1979-01-24 -4.6 0.0 -9.7--- 8.0 5.0---- 0.5-- 68---------
1979-01-23 -9.9 -7.8-15.7--- 8.0 1.7---- 0.3-- 68---------
1979-01-22-12.7 -8.3-15.5--- 8.0 1.0---- 0.4-- 68---------
1979-01-21-12.0 -8.4-14.6--- 2.7 2.3---- 0.0-- 68---------
1979-01-20-10.4 -7.1-11.7--- 2.7 3.7---- 0.0-- 68---------
1979-01-19 -6.6 -5.6 -7.6--- 7.3 3.7---- 0.0-- 68---------
1979-01-18 -6.9 -6.2 -7.5--- 8.0 1.0---- 0.0-- 68---------
1979-01-17 -5.8 -4.2 -7.1--- 8.0 1.7---- 0.0-- 68---------
1979-01-16 -2.4 -0.2 -5.1--- 8.0 5.0---- 0.0-- 68---------
1979-01-15 -1.3 -0.5 -4.6--- 8.0 3.7---- 0.4-- 65---------
1979-01-14 -5.8 -3.4 -7.9--- 8.0 1.7---- 1.1-- 65---------
1979-01-13 -3.4 -2.6 -4.2--- 8.0 2.3---- 0.0-- 65---------
1979-01-12 -2.8 -1.7 -4.1--- 8.0 3.0---- 0.0-- 65---------
1979-01-11 -3.3 -2.0 -4.3--- 8.0 4.3---- 4.1-- 60---------
1979-01-10 -1.6 -0.6 -2.3--- 8.0 3.0---- 0.0-- 60---------
1979-01-09 -1.0 -0.2 -1.3--- 8.0 3.0---- 2.4-- 56---------
1979-01-08 -1.3 0.0 -6.2--- 8.0 3.7---- 1.6-- 54---------
1979-01-07 -9.1 -6.0-14.1--- 6.0 7.0---- 0.0-- 54---------
1979-01-06 -7.1 -4.4-10.1--- 4.3 1.7---- 0.0-- 54---------
1979-01-05 -7.3 -3.8-14.1--- 8.0 4.3---- 1.0-- 52---------
1979-01-04-17.4-12.6-22.5--- 4.0 1.7---- 0.8-- 51---------
1979-01-03 -9.3 -7.0-12.9--- 8.0 4.3---- 4.6-- 45---------
1979-01-02 -8.9 -7.6-12.4--- 8.0 4.3---- 8.7-- 16---------
1979-01-01-17.2-11.6-20.1--- 8.0 1.7---- 4.4-- 6---------
1978-12-31-21.1-19.4-22.5--- 8.0 12.7---- 1.1-- 4---------
1978-12-30-17.1-12.7-20.1--- 8.0 8.3---- 0.0-- 4---------
1978-12-29-13.1 -7.5-15.6--- 8.0 10.0---- 0.4-- 3---------
1978-12-28 -5.5 -1.5 -8.2--- 8.0 7.0---- 11.3------------
1978-12-27 -0.1 2.9 -2.1--- 8.0 3.0---- 0.0------------
1978-12-26 2.4 3.1 0.5--- 8.0 2.3---- 3.7-- 1---------
1978-12-25 -0.5 0.5 -2.6--- 8.0 4.3---- 1.2-- 4---------
1978-12-24 -3.5 -2.4 -4.7--- 8.0 1.7---- 0.0-- 4---------
1978-12-23 -6.6 -4.1-10.6--- 6.7 1.7---- 0.0-- 4---------
1978-12-22-11.1 -8.9-13.6--- 3.7 5.7---- 0.0-- 4---------
1978-12-21 -7.3 -1.9-10.9--- 2.7 2.3---- 0.0-- 4---------
1978-12-20 -0.9 1.1 -2.3--- 5.3 2.3---- 0.0-- 4---------
1978-12-19 -2.2 -1.2 -5.5--- 8.0 3.0---- 0.0-- 5---------
1978-12-18 -5.5 -3.8 -9.1--- 5.3 3.7---- 0.0-- 5---------
577.2 ms

 

Źródłem pochodzenia danych jest Instytut Meteorologii i Gospodarki Wodnej – Państwowy Instytut Badawczy. Dane Instytutu Meteorologii i Gospodarki Wodnej – Państwowego Instytutu Badawczego zostały przetworzone.

Dane źródłowe można odnaleźć na stronie https://dane.imgw.pl